Pouch Cove, Canada
Current Conditions -  °F | °C
As of 4:14 AM on Saturday 29 Nov 2014 (Local Time) from CYYT Reporting Station
Light Snow Light Snow  
Wind Chill: 19°   Ceiling: 500
Heat Index: 30°   Visibility: 1.5mi
Dew Point: 28°   Wind: 15mph
Humidity: 93%   Direction: 360°N
Pressure: 29.68"   Gusts: 21mph
Location:  47.76°N, 52.76°W
Report Text: CYYT 290714Z 36013G18KT 1 1/2SM -SN OVC005 M01/M02 A2968 RMK SF8 SLP058
Loading
Personal Weather Stations






























Interactive Weather Map New forecast layout! Learn more

10-Day Weather Forecast

Advertisements
Track Severe Weather on mobile